createdAt,value
2022-08-26T00:00:28.184Z,21.73
2022-08-26T00:01:29.634Z,21.75
2022-08-26T00:02:28.055Z,21.79
2022-08-26T00:03:27.930Z,21.71
2022-08-26T00:04:27.984Z,21.74
2022-08-26T00:05:27.804Z,21.73
2022-08-26T00:06:27.743Z,21.75
2022-08-26T00:07:27.716Z,21.71
2022-08-26T00:08:27.619Z,21.83
2022-08-26T00:09:27.595Z,21.68
2022-08-26T00:10:27.584Z,21.71
2022-08-26T00:11:27.709Z,21.79
2022-08-26T00:12:27.900Z,21.68
2022-08-26T00:13:27.379Z,21.81
2022-08-26T00:14:31.218Z,21.75
2022-08-26T00:15:27.219Z,21.74
2022-08-26T00:16:27.270Z,21.83
2022-08-26T00:17:27.102Z,21.82
2022-08-26T00:18:27.001Z,21.86
2022-08-26T00:19:27.004Z,21.90
2022-08-26T00:20:26.916Z,21.79
2022-08-26T00:21:26.883Z,21.89
2022-08-26T00:22:26.788Z,21.89
2022-08-26T00:23:26.744Z,21.83
2022-08-26T00:24:26.797Z,21.93
2022-08-26T00:25:26.634Z,21.82
2022-08-26T00:26:28.585Z,21.79
2022-08-26T00:27:26.579Z,21.85
2022-08-26T00:28:26.555Z,21.66
2022-08-26T00:29:26.596Z,21.67
2022-08-26T00:30:26.500Z,21.70
2022-08-26T00:31:26.356Z,21.64
2022-08-26T00:32:26.263Z,21.70
2022-08-26T00:33:26.443Z,21.73
2022-08-26T00:34:26.164Z,21.61
2022-08-26T00:35:26.080Z,21.66
2022-08-26T00:36:29.523Z,21.58
2022-08-26T00:37:26.409Z,21.61
2022-08-26T00:38:28.834Z,21.45
2022-08-26T00:39:28.829Z,21.45
2022-08-26T00:40:25.923Z,21.48
2022-08-26T00:41:25.808Z,21.49
2022-08-26T00:42:25.801Z,21.49
2022-08-26T00:43:25.586Z,21.42
2022-08-26T00:44:25.591Z,21.49
2022-08-26T00:45:25.983Z,21.49
2022-08-26T00:46:25.553Z,21.48
2022-08-26T00:47:25.511Z,21.49
2022-08-26T00:48:25.519Z,21.42
2022-08-26T00:49:25.322Z,21.33
2022-08-26T00:50:25.272Z,21.37
2022-08-26T00:51:29.544Z,21.37
2022-08-26T00:52:25.138Z,21.37
2022-08-26T00:53:26.059Z,21.36
2022-08-26T00:54:26.992Z,21.34
2022-08-26T00:55:25.086Z,21.33
2022-08-26T00:56:24.878Z,21.31
2022-08-26T00:57:24.856Z,21.34
2022-08-26T00:58:24.700Z,21.30
2022-08-26T00:59:24.672Z,21.30
2022-08-26T01:00:24.578Z,21.28
2022-08-26T01:01:24.615Z,21.30
2022-08-26T01:02:24.544Z,21.30
2022-08-26T01:03:24.401Z,21.36
2022-08-26T01:04:24.392Z,21.28
2022-08-26T01:05:24.572Z,21.28
2022-08-26T01:06:24.234Z,21.34
2022-08-26T01:07:24.119Z,21.33
2022-08-26T01:08:24.420Z,21.21
2022-08-26T01:09:24.004Z,21.24
2022-08-26T01:10:23.991Z,21.26
2022-08-26T01:11:23.879Z,21.22
2022-08-26T01:12:23.824Z,21.36
2022-08-26T01:13:24.004Z,21.33
2022-08-26T01:14:23.699Z,21.22
2022-08-26T01:15:23.640Z,21.30
2022-08-26T01:16:23.629Z,21.36
2022-08-26T01:17:23.522Z,21.22
2022-08-26T01:18:23.468Z,21.30
2022-08-26T01:19:23.423Z,21.27
2022-08-26T01:20:23.347Z,21.24
2022-08-26T01:21:23.287Z,21.33
2022-08-26T01:22:23.249Z,21.27
2022-08-26T01:23:23.170Z,21.27
2022-08-26T01:24:23.141Z,21.24
2022-08-26T01:25:23.054Z,21.30
2022-08-26T01:26:22.992Z,21.31
2022-08-26T01:27:22.950Z,21.21
2022-08-26T01:28:22.879Z,21.28
2022-08-26T01:29:22.824Z,21.21
2022-08-26T01:30:22.774Z,21.27
2022-08-26T01:31:22.730Z,21.28
2022-08-26T01:32:23.286Z,21.24
2022-08-26T01:33:22.580Z,21.26
2022-08-26T01:34:22.524Z,21.27
2022-08-26T01:35:22.464Z,21.24
2022-08-26T01:36:22.405Z,21.27
2022-08-26T01:37:22.344Z,21.21
2022-08-26T01:38:22.295Z,21.21
2022-08-26T01:39:22.231Z,21.26
2022-08-26T01:40:22.195Z,21.30
2022-08-26T01:41:27.221Z,21.33
2022-08-26T01:42:22.052Z,21.27
2022-08-26T01:43:21.989Z,21.22
2022-08-26T01:44:21.935Z,21.22
2022-08-26T01:45:21.873Z,21.34
2022-08-26T01:46:21.817Z,21.37
2022-08-26T01:47:21.759Z,21.34
2022-08-26T01:48:21.698Z,21.27
2022-08-26T01:49:21.636Z,21.26
2022-08-26T01:50:27.699Z,21.27
2022-08-26T01:51:21.518Z,21.24
2022-08-26T01:52:21.466Z,21.26
2022-08-26T01:53:21.508Z,21.28
2022-08-26T01:54:23.014Z,21.27
2022-08-26T01:55:27.650Z,21.34
2022-08-26T01:56:21.232Z,21.22
2022-08-26T01:57:21.164Z,21.15
2022-08-26T01:58:21.110Z,21.16
2022-08-26T01:59:21.048Z,21.19
2022-08-26T02:00:20.990Z,21.18
2022-08-26T02:01:21.034Z,21.11
2022-08-26T02:02:20.872Z,21.18
2022-08-26T02:03:20.815Z,21.11
2022-08-26T02:04:20.808Z,21.15
2022-08-26T02:05:20.708Z,21.15
2022-08-26T02:06:20.647Z,21.12
2022-08-26T02:07:20.585Z,21.11
2022-08-26T02:08:24.919Z,21.13
2022-08-26T02:09:20.458Z,21.06
2022-08-26T02:10:20.403Z,21.13
2022-08-26T02:11:20.346Z,21.11
2022-08-26T02:12:20.287Z,21.11
2022-08-26T02:13:20.231Z,21.08
2022-08-26T02:14:20.169Z,21.11
2022-08-26T02:15:20.105Z,21.05
2022-08-26T02:16:20.113Z,21.08
2022-08-26T02:17:19.988Z,21.11
2022-08-26T02:18:19.929Z,21.08
2022-08-26T02:19:19.892Z,21.08
2022-08-26T02:20:19.822Z,21.05
2022-08-26T02:21:19.763Z,21.05
2022-08-26T02:22:19.698Z,21.06
2022-08-26T02:23:19.636Z,21.01
2022-08-26T02:24:19.581Z,20.98
2022-08-26T02:25:19.517Z,21.01
2022-08-26T02:26:19.512Z,20.97
2022-08-26T02:27:19.399Z,20.97
2022-08-26T02:28:19.771Z,20.90
2022-08-26T02:29:19.279Z,20.93
2022-08-26T02:30:19.225Z,20.90
2022-08-26T02:31:19.240Z,20.88
2022-08-26T02:32:19.107Z,21.00
2022-08-26T02:33:19.046Z,20.85
2022-08-26T02:34:18.995Z,20.90
2022-08-26T02:35:20.222Z,20.97
2022-08-26T02:36:18.876Z,20.96
2022-08-26T02:37:18.811Z,20.83
2022-08-26T02:38:18.753Z,20.91
2022-08-26T02:39:21.961Z,20.93
2022-08-26T02:40:18.718Z,20.85
2022-08-26T02:41:18.575Z,20.93
2022-08-26T02:42:18.517Z,20.94
2022-08-26T02:43:18.463Z,20.90
2022-08-26T02:44:18.400Z,20.93
2022-08-26T02:45:23.351Z,20.88
2022-08-26T02:46:21.448Z,20.88
2022-08-26T02:47:18.236Z,20.91
2022-08-26T02:48:18.863Z,20.87
2022-08-26T02:49:18.134Z,20.81
2022-08-26T02:50:18.058Z,20.85
2022-08-26T02:51:17.989Z,20.88
2022-08-26T02:52:17.931Z,20.76
2022-08-26T02:53:23.198Z,20.83
2022-08-26T02:54:17.813Z,20.82
2022-08-26T02:55:17.754Z,20.82
2022-08-26T02:56:17.692Z,20.83
2022-08-26T02:57:17.631Z,20.82
2022-08-26T02:58:17.579Z,20.73
2022-08-26T02:59:17.515Z,20.72
2022-08-26T03:00:17.456Z,20.78
2022-08-26T03:01:17.429Z,20.78
2022-08-26T03:02:17.462Z,20.81
2022-08-26T03:03:17.278Z,20.73
2022-08-26T03:04:17.229Z,20.69
2022-08-26T03:05:17.168Z,20.61
2022-08-26T03:06:17.108Z,20.68
2022-08-26T03:07:17.044Z,20.60
2022-08-26T03:08:16.991Z,20.69
2022-08-26T03:09:18.652Z,20.63
2022-08-26T03:10:16.869Z,20.73
2022-08-26T03:11:16.807Z,20.78
2022-08-26T03:12:16.750Z,20.71
2022-08-26T03:13:16.693Z,20.83
2022-08-26T03:14:16.631Z,20.76
2022-08-26T03:15:17.518Z,20.69
2022-08-26T03:16:16.584Z,20.76
2022-08-26T03:17:16.455Z,20.71
2022-08-26T03:18:16.415Z,20.73
2022-08-26T03:19:17.667Z,20.73
2022-08-26T03:20:17.323Z,20.72
2022-08-26T03:21:16.224Z,20.83
2022-08-26T03:22:16.164Z,20.73
2022-08-26T03:23:16.111Z,20.78
2022-08-26T03:24:16.046Z,20.73
2022-08-26T03:25:15.986Z,20.78
2022-08-26T03:26:15.927Z,20.71
2022-08-26T03:27:15.866Z,20.76
2022-08-26T03:28:15.808Z,20.82
2022-08-26T03:29:15.747Z,20.82
2022-08-26T03:30:15.710Z,20.81
2022-08-26T03:31:15.697Z,20.78
2022-08-26T03:32:15.582Z,20.71
2022-08-26T03:33:15.540Z,20.82
2022-08-26T03:34:15.461Z,20.75
2022-08-26T03:35:15.401Z,20.83
2022-08-26T03:36:15.341Z,20.79
2022-08-26T03:37:15.286Z,20.75
2022-08-26T03:38:15.218Z,20.78
2022-08-26T03:39:15.157Z,20.90
2022-08-26T03:40:15.142Z,20.79
2022-08-26T03:41:15.042Z,20.87
2022-08-26T03:42:15.016Z,20.82
2022-08-26T03:43:14.925Z,20.78
2022-08-26T03:44:14.883Z,20.79
2022-08-26T03:45:14.826Z,20.83
2022-08-26T03:46:14.810Z,20.88
2022-08-26T03:47:14.697Z,20.91
2022-08-26T03:48:14.636Z,20.87
2022-08-26T03:49:14.576Z,20.81
2022-08-26T03:50:14.513Z,20.83
2022-08-26T03:51:14.453Z,20.79
2022-08-26T03:52:14.404Z,20.72
2022-08-26T03:53:14.334Z,20.82
2022-08-26T03:54:14.276Z,20.91
2022-08-26T03:55:14.217Z,20.85
2022-08-26T03:56:14.162Z,20.88
2022-08-26T03:57:14.096Z,20.96
2022-08-26T03:58:14.042Z,20.91
2022-08-26T03:59:13.979Z,20.91
2022-08-26T04:00:13.923Z,20.82
2022-08-26T04:01:13.877Z,20.83
2022-08-26T04:02:13.814Z,20.85
2022-08-26T04:03:18.224Z,20.90
2022-08-26T04:04:15.427Z,20.87
2022-08-26T04:05:13.635Z,20.85
2022-08-26T04:06:13.572Z,20.82
2022-08-26T04:07:13.514Z,20.88
2022-08-26T04:08:13.461Z,20.85
2022-08-26T04:09:13.390Z,20.79
2022-08-26T04:10:13.335Z,20.82
2022-08-26T04:11:13.271Z,20.88
2022-08-26T04:12:13.214Z,20.82
2022-08-26T04:13:13.152Z,20.79
2022-08-26T04:14:13.101Z,20.81
2022-08-26T04:15:13.044Z,20.94
2022-08-26T04:16:13.019Z,20.85
2022-08-26T04:17:12.927Z,20.83
2022-08-26T04:18:12.867Z,20.73
2022-08-26T04:19:12.876Z,20.82
2022-08-26T04:20:12.743Z,20.81
2022-08-26T04:21:12.688Z,20.88
2022-08-26T04:22:12.626Z,20.79
2022-08-26T04:23:12.561Z,20.81
2022-08-26T04:24:12.506Z,20.78
2022-08-26T04:25:12.451Z,20.90
2022-08-26T04:26:12.387Z,20.87
2022-08-26T04:27:12.326Z,20.81
2022-08-26T04:28:12.268Z,20.81
2022-08-26T04:29:12.206Z,20.82
2022-08-26T04:30:12.153Z,20.85
2022-08-26T04:31:12.203Z,20.83
2022-08-26T04:32:12.040Z,20.87
2022-08-26T04:33:12.978Z,20.87
2022-08-26T04:34:11.919Z,20.91
2022-08-26T04:35:11.855Z,20.94
2022-08-26T04:36:11.816Z,20.96
2022-08-26T04:37:11.740Z,20.96
2022-08-26T04:38:11.677Z,20.88
2022-08-26T04:39:11.618Z,20.91
2022-08-26T04:40:11.595Z,20.98
2022-08-26T04:41:15.056Z,21.05
2022-08-26T04:42:11.439Z,21.11
2022-08-26T04:43:11.389Z,21.08
2022-08-26T04:44:11.373Z,21.13
2022-08-26T04:45:11.721Z,21.06
2022-08-26T04:46:11.260Z,21.06
2022-08-26T04:47:11.144Z,21.15
2022-08-26T04:48:11.204Z,21.16
2022-08-26T04:49:11.032Z,21.11
2022-08-26T04:50:11.118Z,21.08
2022-08-26T04:51:10.911Z,21.12
2022-08-26T04:52:10.854Z,21.16
2022-08-26T04:53:10.790Z,21.13
2022-08-26T04:54:10.732Z,21.22
2022-08-26T04:55:10.674Z,21.21
2022-08-26T04:56:10.616Z,21.22
2022-08-26T04:57:10.554Z,21.37
2022-08-26T04:58:10.622Z,21.42
2022-08-26T04:59:16.706Z,21.48
2022-08-26T05:00:10.381Z,21.53
2022-08-26T05:01:10.533Z,21.46
2022-08-26T05:02:10.264Z,21.58
2022-08-26T05:03:10.769Z,21.45
2022-08-26T05:04:10.189Z,21.48
2022-08-26T05:05:10.088Z,21.53
2022-08-26T05:06:10.024Z,21.58
2022-08-26T05:07:09.967Z,21.64
2022-08-26T05:08:09.908Z,21.59
2022-08-26T05:09:09.849Z,21.68
2022-08-26T05:10:09.789Z,21.68
2022-08-26T05:11:09.732Z,21.68
2022-08-26T05:12:09.676Z,21.70
2022-08-26T05:13:11.168Z,21.81
2022-08-26T05:14:09.573Z,21.91
2022-08-26T05:15:09.510Z,21.98
2022-08-26T05:16:09.487Z,21.93
2022-08-26T05:17:09.390Z,22.04
2022-08-26T05:18:09.325Z,22.06
2022-08-26T05:19:09.264Z,22.14
2022-08-26T05:20:09.207Z,22.15
2022-08-26T05:21:09.145Z,22.20
2022-08-26T05:22:09.087Z,22.29
2022-08-26T05:23:09.353Z,22.36
2022-08-26T05:24:08.981Z,22.39
2022-08-26T05:25:08.915Z,22.44
2022-08-26T05:26:08.860Z,22.45
2022-08-26T05:27:11.643Z,22.48
2022-08-26T05:28:08.732Z,22.46
2022-08-26T05:29:08.687Z,22.49
2022-08-26T05:30:08.634Z,22.64
2022-08-26T05:31:08.599Z,22.61
2022-08-26T05:32:08.503Z,22.66
2022-08-26T05:33:08.653Z,22.81
2022-08-26T05:34:08.581Z,22.78
2022-08-26T05:35:08.992Z,22.82
2022-08-26T05:36:08.266Z,22.75
2022-08-26T05:37:08.206Z,22.78
2022-08-26T05:38:12.268Z,22.72
2022-08-26T05:39:08.094Z,22.86
2022-08-26T05:40:08.122Z,23.03
2022-08-26T05:41:07.981Z,23.04
2022-08-26T05:42:07.934Z,23.11
2022-08-26T05:43:07.975Z,23.00
2022-08-26T05:44:07.803Z,23.14
2022-08-26T05:45:07.740Z,23.03
2022-08-26T05:46:07.767Z,23.12
2022-08-26T05:47:07.625Z,23.04
2022-08-26T05:48:07.564Z,23.25
2022-08-26T05:49:12.566Z,23.31
2022-08-26T05:50:07.444Z,23.21
2022-08-26T05:51:07.398Z,23.25
2022-08-26T05:52:07.348Z,23.21
2022-08-26T05:53:07.473Z,23.35
2022-08-26T05:54:07.212Z,23.32
2022-08-26T05:55:07.161Z,23.31
2022-08-26T05:56:07.098Z,23.34
2022-08-26T05:57:07.047Z,23.47
2022-08-26T05:58:06.980Z,23.59
2022-08-26T05:59:08.126Z,23.60
2022-08-26T06:00:06.864Z,23.63
2022-08-26T06:01:06.808Z,23.63
2022-08-26T06:02:06.784Z,23.60
2022-08-26T06:03:07.056Z,23.72
2022-08-26T06:04:06.630Z,23.74
2022-08-26T06:05:06.583Z,23.97
2022-08-26T06:06:06.812Z,24.12
2022-08-26T06:07:06.467Z,24.15
2022-08-26T06:08:06.402Z,24.18
2022-08-26T06:09:06.346Z,24.21
2022-08-26T06:10:31.134Z,24.37
2022-08-26T06:11:06.265Z,24.56
2022-08-26T06:12:06.166Z,24.97
2022-08-26T06:13:11.658Z,25.05
2022-08-26T06:14:06.048Z,24.98
2022-08-26T06:15:05.995Z,25.24
2022-08-26T06:16:05.974Z,25.54
2022-08-26T06:17:05.891Z,25.71
2022-08-26T06:18:05.821Z,26.13
2022-08-26T06:19:11.082Z,26.64
2022-08-26T06:20:05.703Z,27.08
2022-08-26T06:21:05.647Z,27.42
2022-08-26T06:22:05.588Z,27.72
2022-08-26T06:23:05.599Z,28.06
2022-08-26T06:24:05.472Z,28.46
2022-08-26T06:25:05.415Z,28.77
2022-08-26T06:26:05.363Z,29.14
2022-08-26T06:27:05.302Z,29.12
2022-08-26T06:28:05.244Z,29.27
2022-08-26T06:29:05.186Z,29.03
2022-08-26T06:30:05.129Z,29.23
2022-08-26T06:31:05.103Z,29.29
2022-08-26T06:32:05.020Z,29.02
2022-08-26T06:33:05.013Z,28.58
2022-08-26T06:34:09.916Z,28.70
2022-08-26T06:35:04.859Z,28.76
2022-08-26T06:36:04.787Z,28.79
2022-08-26T06:37:04.730Z,28.80
2022-08-26T06:38:04.678Z,29.30
2022-08-26T06:39:04.620Z,29.81
2022-08-26T06:40:04.590Z,30.16
2022-08-26T06:41:04.511Z,30.44
2022-08-26T06:42:05.143Z,30.67
2022-08-26T06:43:04.425Z,30.88
2022-08-26T06:44:04.344Z,31.00
2022-08-26T06:45:04.295Z,30.91
2022-08-26T06:46:04.791Z,30.83
2022-08-26T06:47:04.182Z,30.98
2022-08-26T06:48:04.119Z,30.45
2022-08-26T06:49:04.063Z,30.45
2022-08-26T06:50:04.013Z,30.76
2022-08-26T06:51:03.952Z,30.72
2022-08-26T06:52:03.902Z,30.98
2022-08-26T06:53:03.866Z,30.63
2022-08-26T06:54:03.788Z,30.90
2022-08-26T06:55:03.722Z,30.42
2022-08-26T06:56:03.668Z,30.37
2022-08-26T06:57:03.610Z,30.28
2022-08-26T06:58:03.556Z,30.81
2022-08-26T06:59:03.501Z,31.05
2022-08-26T07:00:03.461Z,31.03
2022-08-26T07:01:11.219Z,31.47
2022-08-26T07:02:03.405Z,31.72
2022-08-26T07:03:03.396Z,31.76
2022-08-26T07:04:03.224Z,31.00
2022-08-26T07:05:03.175Z,30.86
2022-08-26T07:06:03.130Z,30.97
2022-08-26T07:07:03.061Z,31.09
2022-08-26T07:08:03.009Z,31.10
2022-08-26T07:09:03.385Z,31.31
2022-08-26T07:10:02.905Z,30.98
2022-08-26T07:11:02.846Z,31.01
2022-08-26T07:12:02.785Z,30.91
2022-08-26T07:13:02.820Z,30.64
2022-08-26T07:14:02.676Z,31.03
2022-08-26T07:15:02.634Z,31.59
2022-08-26T07:16:02.862Z,31.91
2022-08-26T07:17:02.514Z,32.16
2022-08-26T07:18:02.459Z,32.39
2022-08-26T07:19:03.471Z,32.05
2022-08-26T07:20:02.363Z,32.09
2022-08-26T07:21:02.300Z,32.25
2022-08-26T07:22:03.465Z,32.14
2022-08-26T07:23:02.232Z,31.22
2022-08-26T07:24:02.137Z,31.56
2022-08-26T07:25:02.091Z,31.99
2022-08-26T07:26:02.033Z,31.76
2022-08-26T07:27:01.975Z,31.53
2022-08-26T07:28:01.917Z,31.20
2022-08-26T07:29:01.866Z,31.57
2022-08-26T07:30:02.096Z,30.67
2022-08-26T07:31:01.832Z,29.85
2022-08-26T07:32:01.721Z,30.25
2022-08-26T07:33:01.684Z,29.48
2022-08-26T07:34:01.597Z,29.81
2022-08-26T07:35:01.547Z,29.88
2022-08-26T07:36:01.510Z,29.44
2022-08-26T07:37:01.435Z,29.47
2022-08-26T07:38:01.384Z,29.41
2022-08-26T07:39:01.340Z,29.51
2022-08-26T07:40:01.353Z,29.94
2022-08-26T07:41:01.219Z,30.04
2022-08-26T07:42:01.166Z,30.23
2022-08-26T07:43:01.119Z,30.72
2022-08-26T07:44:01.085Z,30.59
2022-08-26T07:45:01.014Z,31.07
2022-08-26T07:46:00.948Z,31.49
2022-08-26T07:47:00.900Z,31.45
2022-08-26T07:48:00.852Z,31.64
2022-08-26T07:49:00.829Z,31.97
2022-08-26T07:50:00.732Z,32.46
2022-08-26T07:51:00.681Z,33.02
2022-08-26T07:52:00.638Z,33.70
2022-08-26T07:53:00.603Z,33.34
2022-08-26T07:54:00.522Z,33.24
2022-08-26T07:55:00.470Z,33.52
2022-08-26T07:56:00.412Z,33.35
2022-08-26T07:57:00.372Z,33.24
2022-08-26T07:58:00.310Z,33.66
2022-08-26T07:59:00.257Z,33.68
2022-08-26T08:00:00.204Z,33.37
2022-08-26T08:01:00.204Z,33.31
2022-08-26T08:02:00.228Z,32.85
2022-08-26T08:03:00.049Z,32.69
2022-08-26T08:03:59.991Z,32.31
2022-08-26T08:05:00.011Z,32.29
2022-08-26T08:05:59.893Z,32.76
2022-08-26T08:06:59.832Z,33.14
2022-08-26T08:08:17.368Z,33.87
2022-08-26T08:08:59.732Z,34.61
2022-08-26T08:09:59.679Z,35.24
2022-08-26T08:10:59.735Z,35.03
2022-08-26T08:11:59.568Z,34.38
2022-08-26T08:12:59.523Z,34.63
2022-08-26T08:13:59.469Z,35.13
2022-08-26T08:14:59.419Z,35.71
2022-08-26T08:15:59.363Z,36.15
2022-08-26T08:16:59.415Z,36.18
2022-08-26T08:18:00.929Z,36.19
2022-08-26T08:18:59.228Z,36.22
2022-08-26T08:19:59.165Z,35.25
2022-08-26T08:21:05.180Z,35.09
2022-08-26T08:21:59.059Z,35.32
2022-08-26T08:22:58.998Z,35.62
2022-08-26T08:23:58.954Z,35.22
2022-08-26T08:24:58.912Z,35.29
2022-08-26T08:25:58.843Z,35.49
2022-08-26T08:26:58.807Z,35.55
2022-08-26T08:27:58.743Z,35.92
2022-08-26T08:28:58.690Z,35.43
2022-08-26T08:29:58.641Z,35.17
2022-08-26T08:30:58.616Z,34.69
2022-08-26T08:31:58.806Z,34.42
2022-08-26T08:32:58.488Z,34.61
2022-08-26T08:33:58.440Z,34.75
2022-08-26T08:34:58.388Z,34.58
2022-08-26T08:35:58.342Z,34.88
2022-08-26T08:36:58.296Z,34.94
2022-08-26T08:37:58.233Z,34.98
2022-08-26T08:38:58.189Z,35.27
2022-08-26T08:39:58.168Z,35.40
2022-08-26T08:40:58.088Z,35.27
2022-08-26T08:41:58.029Z,34.30
2022-08-26T08:42:57.989Z,34.60
2022-08-26T08:43:57.928Z,35.00
2022-08-26T08:44:57.877Z,35.42
2022-08-26T08:45:57.870Z,35.52
2022-08-26T08:46:57.869Z,34.98
2022-08-26T08:47:57.727Z,35.29
2022-08-26T08:48:57.677Z,35.39
2022-08-26T08:49:57.622Z,35.65
2022-08-26T08:50:57.576Z,35.49
2022-08-26T08:51:57.530Z,35.81
2022-08-26T08:52:57.484Z,36.41
2022-08-26T08:53:57.430Z,36.38
2022-08-26T08:54:57.372Z,35.96
2022-08-26T08:55:57.322Z,35.89
2022-08-26T08:56:57.277Z,36.23
2022-08-26T08:58:02.113Z,35.92
2022-08-26T08:58:57.171Z,36.21
2022-08-26T08:59:57.121Z,36.56
2022-08-26T09:00:57.121Z,37.09
2022-08-26T09:01:57.023Z,36.40
2022-08-26T09:02:56.973Z,35.98
2022-08-26T09:03:56.983Z,36.38
2022-08-26T09:04:57.514Z,36.31
2022-08-26T09:05:56.822Z,36.16
2022-08-26T09:07:56.723Z,36.31
2022-08-26T09:08:56.672Z,34.83
2022-08-26T09:09:56.627Z,32.78
2022-08-26T09:10:56.590Z,31.76
2022-08-26T09:11:56.525Z,31.18
2022-08-26T09:12:56.478Z,31.15
2022-08-26T09:13:56.450Z,31.47
2022-08-26T09:14:56.375Z,31.71
2022-08-26T09:15:56.323Z,31.84
2022-08-26T09:16:56.336Z,32.05
2022-08-26T09:17:56.223Z,32.03
2022-08-26T09:18:56.184Z,32.29
2022-08-26T09:19:56.118Z,32.39
2022-08-26T09:20:56.074Z,32.21
2022-08-26T09:21:56.100Z,32.22
2022-08-26T09:22:55.966Z,32.32
2022-08-26T09:23:56.603Z,32.34
2022-08-26T09:24:55.866Z,32.90
2022-08-26T09:25:55.848Z,33.20
2022-08-26T09:26:55.757Z,33.60
2022-08-26T09:27:55.719Z,33.62
2022-08-26T09:28:55.655Z,33.56
2022-08-26T09:29:55.611Z,33.79
2022-08-26T09:30:55.629Z,34.16
2022-08-26T09:31:55.500Z,33.96
2022-08-26T09:32:56.039Z,33.02
2022-08-26T09:33:55.398Z,33.02
2022-08-26T09:34:55.359Z,33.15
2022-08-26T09:35:55.296Z,33.20
2022-08-26T09:36:55.240Z,33.24
2022-08-26T09:37:55.286Z,33.59
2022-08-26T09:38:55.139Z,33.92
2022-08-26T09:39:55.114Z,33.79
2022-08-26T09:40:56.191Z,33.81
2022-08-26T09:41:54.993Z,34.06
2022-08-26T09:42:54.931Z,34.12
2022-08-26T09:43:54.884Z,33.22
2022-08-26T09:44:54.834Z,32.56
2022-08-26T09:45:58.371Z,32.58
2022-08-26T09:46:54.722Z,32.80
2022-08-26T09:47:54.676Z,32.54
2022-08-26T09:48:54.727Z,32.19
2022-08-26T09:49:54.568Z,32.46
2022-08-26T09:50:54.520Z,32.73
2022-08-26T09:51:54.483Z,33.00
2022-08-26T09:52:54.415Z,33.20
2022-08-26T09:53:54.360Z,33.45
2022-08-26T09:54:54.310Z,33.66
2022-08-26T09:55:54.255Z,33.82
2022-08-26T09:56:54.211Z,34.05
2022-08-26T09:57:54.154Z,34.01
2022-08-26T09:58:54.099Z,34.42
2022-08-26T09:59:54.048Z,34.64
2022-08-26T10:00:54.066Z,34.78
2022-08-26T10:01:54.066Z,34.64
2022-08-26T10:02:57.803Z,34.63
2022-08-26T10:03:53.884Z,34.38
2022-08-26T10:04:53.789Z,34.46
2022-08-26T10:05:53.748Z,34.37
2022-08-26T10:06:53.681Z,34.45
2022-08-26T10:07:53.704Z,34.55
2022-08-26T10:08:54.141Z,34.40
2022-08-26T10:09:53.615Z,34.38
2022-08-26T10:10:53.898Z,34.28
2022-08-26T10:11:53.510Z,34.36
2022-08-26T10:12:53.425Z,33.84
2022-08-26T10:13:53.352Z,33.20
2022-08-26T10:14:53.331Z,33.31
2022-08-26T10:15:53.270Z,33.15
2022-08-26T10:16:53.301Z,32.78
2022-08-26T10:17:53.157Z,32.81
2022-08-26T10:18:56.870Z,33.35
2022-08-26T10:19:56.497Z,33.70
2022-08-26T10:20:53.063Z,33.63
2022-08-26T10:21:54.165Z,33.96
2022-08-26T10:22:52.973Z,34.27
2022-08-26T10:23:52.883Z,34.27
2022-08-26T10:24:55.143Z,34.36
2022-08-26T10:25:52.794Z,34.67
2022-08-26T10:26:52.694Z,34.81
2022-08-26T10:27:53.764Z,34.50
2022-08-26T10:28:52.607Z,34.78
2022-08-26T10:29:52.608Z,35.24
2022-08-26T10:30:52.644Z,35.50
2022-08-26T10:31:52.479Z,35.80
2022-08-26T10:32:52.424Z,35.89
2022-08-26T10:33:56.658Z,36.22
2022-08-26T10:34:52.263Z,36.40
2022-08-26T10:35:52.419Z,36.82
2022-08-26T10:37:13.461Z,36.53
2022-08-26T10:37:52.180Z,36.44
2022-08-26T10:38:52.057Z,36.65
2022-08-26T10:39:52.091Z,35.03
2022-08-26T10:40:52.027Z,32.84
2022-08-26T10:41:51.896Z,32.95
2022-08-26T10:42:51.879Z,33.02
2022-08-26T10:43:51.809Z,33.29
2022-08-26T10:44:51.747Z,33.34
2022-08-26T10:45:51.864Z,32.96
2022-08-26T10:46:51.635Z,32.32
2022-08-26T10:47:51.591Z,31.85
2022-08-26T10:48:52.133Z,31.78
2022-08-26T10:49:51.626Z,31.92
2022-08-26T10:50:51.452Z,31.98
2022-08-26T10:51:51.469Z,32.14
2022-08-26T10:52:51.369Z,32.29
2022-08-26T10:53:51.733Z,32.39
2022-08-26T10:54:51.264Z,32.44
2022-08-26T10:55:51.269Z,32.29
2022-08-26T10:56:51.200Z,32.31
2022-08-26T10:57:51.141Z,32.61
2022-08-26T10:58:51.042Z,32.85
2022-08-26T10:59:51.002Z,33.14
2022-08-26T11:00:51.070Z,33.45
2022-08-26T11:01:52.657Z,33.71
2022-08-26T11:02:50.879Z,33.78
2022-08-26T11:03:50.841Z,33.59
2022-08-26T11:04:50.848Z,33.60
2022-08-26T11:05:50.721Z,33.37
2022-08-26T11:06:50.613Z,32.85
2022-08-26T11:07:50.588Z,32.32
2022-08-26T11:08:50.507Z,31.98
2022-08-26T11:09:50.503Z,31.54
2022-08-26T11:10:50.408Z,31.20
2022-08-26T11:11:50.338Z,31.22
2022-08-26T11:12:50.312Z,30.94
2022-08-26T11:13:50.270Z,31.12
2022-08-26T11:14:56.211Z,30.85
2022-08-26T11:15:50.135Z,30.86
2022-08-26T11:16:50.177Z,30.96
2022-08-26T11:17:50.073Z,31.09
2022-08-26T11:18:51.302Z,31.20
2022-08-26T11:20:00.892Z,31.42
2022-08-26T11:20:49.855Z,31.46
2022-08-26T11:21:50.711Z,31.53
2022-08-26T11:22:49.814Z,31.60
2022-08-26T11:23:50.520Z,31.50
2022-08-26T11:24:49.674Z,31.30
2022-08-26T11:25:49.610Z,31.35
2022-08-26T11:26:56.427Z,31.41
2022-08-26T11:27:49.485Z,31.49
2022-08-26T11:28:49.672Z,31.60
2022-08-26T11:29:49.392Z,31.60
2022-08-26T11:30:50.130Z,31.34
2022-08-26T11:31:49.283Z,31.03
2022-08-26T11:32:49.179Z,31.07
2022-08-26T11:33:49.212Z,31.15
2022-08-26T11:34:49.119Z,31.07
2022-08-26T11:35:49.124Z,30.63
2022-08-26T11:36:49.026Z,30.64
2022-08-26T11:37:49.057Z,30.68
2022-08-26T11:38:48.939Z,30.81
2022-08-26T11:39:54.450Z,30.79
2022-08-26T11:40:48.779Z,30.98
2022-08-26T11:41:48.772Z,30.96
2022-08-26T11:42:48.691Z,31.03
2022-08-26T11:43:48.661Z,30.82
2022-08-26T11:44:49.378Z,30.72
2022-08-26T11:45:48.607Z,30.83
2022-08-26T11:46:48.475Z,30.73
2022-08-26T11:47:49.320Z,30.68
2022-08-26T11:48:48.423Z,30.75
2022-08-26T11:49:48.342Z,30.53
2022-08-26T11:50:48.295Z,30.00
2022-08-26T11:51:48.436Z,29.82
2022-08-26T11:52:48.136Z,29.71
2022-08-26T11:53:48.110Z,29.30
2022-08-26T11:54:48.015Z,28.80
2022-08-26T11:55:48.023Z,28.06
2022-08-26T11:56:47.923Z,27.76
2022-08-26T11:57:47.863Z,27.46
2022-08-26T11:58:47.877Z,27.58
2022-08-26T11:59:47.773Z,27.59
2022-08-26T12:00:47.745Z,27.52
2022-08-26T12:01:47.648Z,27.46
2022-08-26T12:02:47.585Z,27.28
2022-08-26T12:03:47.694Z,27.28
2022-08-26T12:04:47.565Z,27.21
2022-08-26T12:05:47.468Z,27.06
2022-08-26T12:06:47.374Z,26.94
2022-08-26T12:07:47.310Z,26.87
2022-08-26T12:08:47.284Z,26.57
2022-08-26T12:09:47.187Z,26.59
2022-08-26T12:10:47.195Z,26.65
2022-08-26T12:11:47.105Z,26.65
2022-08-26T12:12:47.043Z,26.78
2022-08-26T12:13:47.009Z,26.66
2022-08-26T12:14:46.913Z,26.51
2022-08-26T12:15:46.917Z,26.28
2022-08-26T12:16:46.944Z,26.17
2022-08-26T12:17:50.480Z,26.13
2022-08-26T12:18:46.735Z,26.11
2022-08-26T12:19:46.677Z,25.97
2022-08-26T12:20:46.642Z,25.94
2022-08-26T12:21:46.550Z,25.94
2022-08-26T12:22:47.956Z,25.83
2022-08-26T12:23:46.727Z,25.81
2022-08-26T12:24:46.363Z,25.42
2022-08-26T12:25:46.372Z,25.35
2022-08-26T12:26:46.273Z,25.35
2022-08-26T12:27:47.880Z,25.45
2022-08-26T12:28:46.185Z,25.39
2022-08-26T12:29:48.447Z,25.09
2022-08-26T12:30:46.093Z,25.07
2022-08-26T12:31:46.031Z,24.74
2022-08-26T12:32:57.570Z,24.67
2022-08-26T12:33:45.953Z,24.36
2022-08-26T12:34:45.824Z,24.14
2022-08-26T12:35:45.833Z,24.00
2022-08-26T12:36:45.796Z,23.79
2022-08-26T12:37:45.734Z,23.60
2022-08-26T12:38:45.638Z,23.39
2022-08-26T12:39:45.654Z,23.04
2022-08-26T12:40:45.501Z,23.01
2022-08-26T12:41:45.457Z,22.86
2022-08-26T12:42:45.357Z,22.86
2022-08-26T12:43:45.370Z,22.89
2022-08-26T12:44:53.223Z,22.97
2022-08-26T12:45:45.407Z,22.85
2022-08-26T12:46:49.193Z,22.93
2022-08-26T12:47:45.096Z,23.00
2022-08-26T12:48:45.030Z,23.00
2022-08-26T12:49:44.994Z,23.09
2022-08-26T12:50:44.895Z,22.91
2022-08-26T12:51:44.900Z,23.12
2022-08-26T12:52:44.908Z,23.09